createdAt,value
2018-06-28T00:00:09.227Z,19.36
2018-06-28T00:02:37.620Z,19.32
2018-06-28T00:05:05.971Z,19.33
2018-06-28T00:07:34.315Z,19.28
2018-06-28T00:10:03.373Z,19.27
2018-06-28T00:12:31.730Z,19.22
2018-06-28T00:15:00.097Z,19.15
2018-06-28T00:17:28.426Z,19.14
2018-06-28T00:19:56.780Z,19.10
2018-06-28T00:22:25.127Z,19.02
2018-06-28T00:24:53.506Z,19.07
2018-06-28T00:27:21.859Z,19.05
2018-06-28T00:29:50.220Z,19.03
2018-06-28T00:32:18.571Z,18.94
2018-06-28T00:34:46.896Z,18.96
2018-06-28T00:37:15.247Z,18.94
2018-06-28T00:39:43.609Z,18.88
2018-06-28T00:42:11.954Z,18.87
2018-06-28T00:44:40.310Z,18.82
2018-06-28T00:47:08.719Z,18.84
2018-06-28T00:49:37.067Z,18.74
2018-06-28T00:52:05.413Z,18.75
2018-06-28T00:54:33.792Z,18.77
2018-06-28T00:57:02.173Z,18.76
2018-06-28T00:59:30.515Z,18.61
2018-06-28T01:01:58.916Z,18.60
2018-06-28T01:04:27.265Z,18.62
2018-06-28T01:06:55.590Z,18.62
2018-06-28T01:09:23.952Z,18.60
2018-06-28T01:11:52.300Z,18.54
2018-06-28T01:14:20.625Z,18.54
2018-06-28T01:16:48.976Z,18.51
2018-06-28T01:19:17.307Z,18.51
2018-06-28T01:21:45.634Z,18.48
2018-06-28T01:24:13.974Z,18.47
2018-06-28T01:26:42.343Z,18.48
2018-06-28T01:29:10.692Z,18.42
2018-06-28T01:31:39.047Z,18.41
2018-06-28T01:34:07.409Z,18.40
2018-06-28T01:36:35.762Z,18.30
2018-06-28T01:39:06.756Z,18.28
2018-06-28T01:41:46.353Z,18.28
2018-06-28T01:44:14.720Z,18.25
2018-06-28T01:46:43.077Z,18.26
2018-06-28T01:49:11.450Z,18.24
2018-06-28T01:51:39.817Z,18.22
2018-06-28T01:54:08.171Z,18.22
2018-06-28T01:56:36.522Z,18.21
2018-06-28T01:59:04.836Z,18.14
2018-06-28T02:01:33.173Z,18.15
2018-06-28T02:04:01.501Z,18.17
2018-06-28T02:06:29.828Z,18.14
2018-06-28T02:08:58.160Z,18.13
2018-06-28T02:11:26.492Z,18.08
2018-06-28T02:13:54.818Z,18.02
2018-06-28T02:16:23.183Z,18.03
2018-06-28T02:18:51.540Z,18.00
2018-06-28T02:21:19.852Z,17.99
2018-06-28T02:23:48.180Z,18.00
2018-06-28T02:26:16.574Z,17.97
2018-06-28T02:28:44.888Z,17.96
2018-06-28T02:31:13.211Z,17.95
2018-06-28T02:33:41.528Z,17.92
2018-06-28T02:36:09.871Z,17.91
2018-06-28T02:38:38.209Z,17.89
2018-06-28T02:41:06.728Z,17.88
2018-06-28T02:43:35.072Z,17.81
2018-06-28T02:46:03.472Z,17.83
2018-06-28T02:48:31.816Z,17.83
2018-06-28T02:51:00.153Z,17.82
2018-06-28T02:53:28.488Z,17.76
2018-06-28T02:55:56.829Z,17.74
2018-06-28T02:58:25.173Z,17.73
2018-06-28T03:00:53.510Z,17.73
2018-06-28T03:03:21.885Z,17.73
2018-06-28T03:05:50.218Z,17.69
2018-06-28T03:08:18.544Z,17.72
2018-06-28T03:10:46.976Z,17.71
2018-06-28T03:13:15.345Z,17.67
2018-06-28T03:15:43.710Z,17.67
2018-06-28T03:18:12.176Z,17.64
2018-06-28T03:20:40.515Z,17.56
2018-06-28T03:23:08.830Z,17.58
2018-06-28T03:25:37.175Z,17.58
2018-06-28T03:28:05.523Z,17.55
2018-06-28T03:30:33.841Z,17.52
2018-06-28T03:33:02.185Z,17.48
2018-06-28T03:35:30.594Z,17.47
2018-06-28T03:37:59.043Z,17.48
2018-06-28T03:40:27.287Z,17.50
2018-06-28T03:42:55.635Z,17.53
2018-06-28T03:45:24.060Z,17.49
2018-06-28T03:47:52.420Z,17.51
2018-06-28T03:50:20.769Z,17.48
2018-06-28T03:52:49.114Z,17.49
2018-06-28T03:55:17.429Z,17.52
2018-06-28T03:57:45.785Z,17.51
2018-06-28T04:00:14.116Z,17.52
2018-06-28T04:02:42.483Z,17.56
2018-06-28T04:05:10.839Z,17.55
2018-06-28T04:07:39.165Z,17.54
2018-06-28T04:10:07.513Z,17.55
2018-06-28T04:12:35.870Z,17.57
2018-06-28T04:15:04.245Z,17.57
2018-06-28T04:17:32.567Z,17.55
2018-06-28T04:20:00.920Z,17.54
2018-06-28T04:22:30.613Z,17.52
2018-06-28T04:24:59.455Z,17.55
2018-06-28T04:27:28.578Z,17.51
2018-06-28T04:29:56.860Z,17.54
2018-06-28T04:32:25.469Z,17.57
2018-06-28T04:34:53.810Z,17.59
2018-06-28T04:37:22.120Z,17.60
2018-06-28T04:39:50.453Z,17.66
2018-06-28T04:42:18.790Z,17.70
2018-06-28T04:44:47.160Z,17.72
2018-06-28T04:47:15.483Z,17.74
2018-06-28T04:49:43.984Z,17.79
2018-06-28T04:52:12.349Z,17.84
2018-06-28T04:54:41.496Z,17.86
2018-06-28T04:57:09.965Z,17.93
2018-06-28T04:59:38.316Z,17.98
2018-06-28T05:02:06.880Z,18.03
2018-06-28T05:04:35.252Z,18.11
2018-06-28T05:07:03.607Z,18.15
2018-06-28T05:09:31.945Z,18.20
2018-06-28T05:12:00.285Z,18.31
2018-06-28T05:14:28.649Z,18.38
2018-06-28T05:16:56.996Z,18.44
2018-06-28T05:19:25.334Z,18.47
2018-06-28T05:21:53.664Z,18.59
2018-06-28T05:24:22.020Z,18.72
2018-06-28T05:26:50.356Z,18.79
2018-06-28T05:29:18.832Z,18.86
2018-06-28T05:31:47.085Z,18.95
2018-06-28T05:34:15.460Z,19.05
2018-06-28T05:36:43.809Z,19.09
2018-06-28T05:39:12.516Z,19.20
2018-06-28T05:41:40.873Z,19.30
2018-06-28T05:44:09.215Z,19.38
2018-06-28T05:46:37.565Z,19.48
2018-06-28T05:49:05.939Z,19.62
2018-06-28T05:51:34.297Z,19.76
2018-06-28T05:54:02.702Z,19.90
2018-06-28T05:56:31.050Z,20.08
2018-06-28T05:58:59.383Z,20.24
2018-06-28T06:01:27.954Z,20.44
2018-06-28T06:03:56.468Z,20.60
2018-06-28T06:06:24.844Z,20.76
2018-06-28T06:08:53.240Z,20.86
2018-06-28T06:11:21.600Z,21.04
2018-06-28T06:13:49.934Z,21.31
2018-06-28T06:16:18.289Z,21.57
2018-06-28T06:18:46.666Z,21.85
2018-06-28T06:21:15.015Z,22.12
2018-06-28T06:23:43.391Z,22.47
2018-06-28T06:26:11.804Z,22.66
2018-06-28T06:28:40.184Z,22.93
2018-06-28T06:31:08.525Z,23.31
2018-06-28T06:33:36.900Z,23.68
2018-06-28T06:36:05.628Z,23.85
2018-06-28T06:38:34.034Z,24.05
2018-06-28T06:41:02.427Z,24.12
2018-06-28T06:43:30.793Z,24.38
2018-06-28T06:45:59.246Z,24.87
2018-06-28T06:48:27.591Z,25.03
2018-06-28T06:50:55.936Z,25.19
2018-06-28T06:53:24.322Z,25.41
2018-06-28T06:55:52.687Z,25.74
2018-06-28T06:58:21.465Z,26.05
2018-06-28T07:00:49.828Z,26.11
2018-06-28T07:03:18.175Z,26.19
2018-06-28T07:05:46.511Z,26.58
2018-06-28T07:08:15.482Z,26.85
2018-06-28T07:10:43.824Z,26.92
2018-06-28T07:13:12.168Z,27.17
2018-06-28T07:15:40.557Z,27.60
2018-06-28T07:18:09.023Z,27.94
2018-06-28T07:20:37.388Z,28.41
2018-06-28T07:23:06.085Z,28.67
2018-06-28T07:25:34.436Z,28.80
2018-06-28T07:28:02.739Z,29.62
2018-06-28T07:30:31.096Z,29.90
2018-06-28T07:32:59.483Z,30.68
2018-06-28T07:35:27.903Z,31.23
2018-06-28T07:37:56.268Z,31.25
2018-06-28T07:40:24.862Z,31.85
2018-06-28T07:42:53.366Z,33.55
2018-06-28T07:45:21.724Z,33.76
2018-06-28T07:47:50.089Z,33.79
2018-06-28T07:50:18.462Z,33.04
2018-06-28T07:52:46.883Z,33.25
2018-06-28T07:55:15.291Z,33.59
2018-06-28T07:57:44.192Z,32.95
2018-06-28T08:00:12.540Z,33.60
2018-06-28T08:02:41.019Z,33.97
2018-06-28T08:05:09.391Z,34.19
2018-06-28T08:07:37.730Z,34.45
2018-06-28T08:10:06.086Z,35.06
2018-06-28T08:12:34.435Z,35.58
2018-06-28T08:15:02.839Z,34.53
2018-06-28T08:17:31.191Z,35.42
2018-06-28T08:19:59.522Z,36.20
2018-06-28T08:22:27.892Z,35.65
2018-06-28T08:24:56.357Z,36.47
2018-06-28T08:27:24.709Z,37.32
2018-06-28T08:29:53.099Z,37.65
2018-06-28T08:32:21.457Z,36.50
2018-06-28T08:34:49.840Z,37.22
2018-06-28T08:37:18.207Z,37.96
2018-06-28T08:39:46.634Z,37.88
2018-06-28T08:42:15.014Z,37.77
2018-06-28T08:44:43.352Z,37.95
2018-06-28T08:47:11.709Z,36.29
2018-06-28T08:49:40.077Z,37.43
2018-06-28T08:52:08.477Z,37.01
2018-06-28T08:54:37.152Z,36.65
2018-06-28T08:57:05.528Z,36.15
2018-06-28T08:59:33.895Z,37.60
2018-06-28T09:02:02.287Z,38.18
2018-06-28T09:04:30.860Z,38.55
2018-06-28T09:07:00.037Z,38.69
2018-06-28T09:09:28.418Z,38.83
2018-06-28T09:11:56.765Z,37.08
2018-06-28T09:14:25.175Z,38.21
2018-06-28T09:16:53.552Z,37.66
2018-06-28T09:19:21.901Z,37.73
2018-06-28T09:21:50.312Z,37.27
2018-06-28T09:24:18.664Z,37.41
2018-06-28T09:26:47.032Z,36.60
2018-06-28T09:29:15.417Z,35.82
2018-06-28T09:31:43.763Z,37.10
2018-06-28T09:34:12.220Z,37.16
2018-06-28T09:36:40.656Z,37.27
2018-06-28T09:39:10.327Z,37.29
2018-06-28T09:41:38.675Z,37.59
2018-06-28T09:44:07.119Z,37.03
2018-06-28T09:46:35.465Z,37.37
2018-06-28T09:49:03.888Z,37.59
2018-06-28T09:51:32.214Z,37.12
2018-06-28T09:54:00.575Z,37.54
2018-06-28T09:56:28.950Z,37.41
2018-06-28T09:58:57.331Z,37.22
2018-06-28T10:01:25.712Z,37.40
2018-06-28T10:03:54.158Z,37.32
2018-06-28T10:06:22.569Z,36.65
2018-06-28T10:08:50.921Z,35.58
2018-06-28T10:11:19.308Z,34.53
2018-06-28T10:13:47.670Z,33.87
2018-06-28T10:16:16.051Z,34.35
2018-06-28T10:18:44.492Z,34.74
2018-06-28T10:21:12.948Z,34.46
2018-06-28T10:23:41.327Z,34.64
2018-06-28T10:26:09.668Z,34.34
2018-06-28T10:28:38.024Z,35.01
2018-06-28T10:31:06.427Z,34.92
2018-06-28T10:33:35.197Z,34.22
2018-06-28T10:36:03.596Z,34.64
2018-06-28T10:38:31.974Z,34.75
2018-06-28T10:41:00.337Z,34.35
2018-06-28T10:43:28.696Z,33.91
2018-06-28T10:45:57.051Z,33.71
2018-06-28T10:48:25.418Z,33.53
2018-06-28T10:50:53.770Z,33.59
2018-06-28T10:53:22.147Z,33.33
2018-06-28T10:55:50.975Z,32.77
2018-06-28T10:58:19.492Z,32.94
2018-06-28T11:00:47.863Z,32.01
2018-06-28T11:03:16.212Z,31.66
2018-06-28T11:05:44.656Z,30.85
2018-06-28T11:08:13.119Z,30.98
2018-06-28T11:10:41.516Z,30.61
2018-06-28T11:13:09.862Z,30.75
2018-06-28T11:15:38.302Z,30.27
2018-06-28T11:18:06.698Z,30.44
2018-06-28T11:20:35.071Z,30.31
2018-06-28T11:23:03.473Z,30.05
2018-06-28T11:25:31.896Z,29.82
2018-06-28T11:28:00.300Z,29.85
2018-06-28T11:30:28.687Z,29.81
2018-06-28T11:32:58.155Z,29.64
2018-06-28T11:35:26.630Z,29.60
2018-06-28T11:37:55.054Z,29.65
2018-06-28T11:40:23.442Z,29.24
2018-06-28T11:42:52.184Z,29.24
2018-06-28T11:45:20.559Z,29.01
2018-06-28T11:47:48.979Z,28.84
2018-06-28T11:50:17.354Z,28.86
2018-06-28T11:52:45.706Z,29.05
2018-06-28T11:55:14.060Z,28.84
2018-06-28T11:57:42.624Z,28.57
2018-06-28T12:00:11.092Z,28.67
2018-06-28T12:02:39.456Z,28.38
2018-06-28T12:05:07.795Z,28.44
2018-06-28T12:07:36.218Z,28.40
2018-06-28T12:10:04.940Z,28.35
2018-06-28T12:12:33.250Z,28.50
2018-06-28T12:15:01.595Z,28.51
2018-06-28T12:17:29.970Z,28.36
2018-06-28T12:19:58.385Z,28.40
2018-06-28T12:22:26.811Z,28.33
2018-06-28T12:24:55.131Z,28.26
2018-06-28T12:27:23.457Z,28.25
2018-06-28T12:29:51.775Z,28.26
2018-06-28T12:32:20.119Z,28.36
2018-06-28T12:34:48.464Z,28.38
2018-06-28T12:37:16.805Z,28.40
2018-06-28T12:39:45.164Z,28.39
2018-06-28T12:42:13.522Z,28.46
2018-06-28T12:44:42.009Z,28.39
2018-06-28T12:47:55.982Z,28.38
2018-06-28T12:50:24.331Z,28.05
2018-06-28T12:53:01.967Z,28.00
2018-06-28T12:55:43.180Z,27.93
2018-06-28T12:58:11.543Z,27.92
2018-06-28T13:00:39.934Z,27.91
2018-06-28T13:03:08.272Z,27.86
2018-06-28T13:05:36.609Z,27.63
2018-06-28T13:08:04.961Z,27.69
2018-06-28T13:10:33.343Z,27.77
2018-06-28T13:13:01.692Z,27.74
2018-06-28T13:15:30.057Z,27.80
2018-06-28T13:17:58.419Z,27.86
2018-06-28T13:20:26.819Z,27.78
2018-06-28T13:22:55.179Z,27.68
2018-06-28T13:25:23.519Z,27.62
2018-06-28T13:27:51.879Z,27.61
2018-06-28T13:30:20.258Z,27.61
2018-06-28T13:32:48.608Z,27.69
2018-06-28T13:35:16.925Z,27.82
2018-06-28T13:37:45.278Z,27.92
2018-06-28T13:40:13.746Z,27.99
2018-06-28T13:42:42.066Z,27.91
2018-06-28T13:45:10.411Z,27.92
2018-06-28T13:47:38.787Z,27.92
2018-06-28T13:50:07.168Z,27.96
2018-06-28T13:52:35.547Z,27.90
2018-06-28T13:55:04.003Z,27.84
2018-06-28T13:57:32.430Z,27.97
2018-06-28T14:00:00.748Z,27.95
2018-06-28T14:02:29.095Z,27.97
2018-06-28T14:04:57.435Z,27.99
2018-06-28T14:07:25.764Z,28.08
2018-06-28T14:09:54.148Z,28.06
2018-06-28T14:12:22.560Z,28.14
2018-06-28T14:14:50.994Z,28.03
2018-06-28T14:17:19.432Z,27.98
2018-06-28T14:19:47.843Z,27.87
2018-06-28T14:22:16.254Z,27.93
2018-06-28T14:24:44.590Z,27.95
2018-06-28T14:27:13.836Z,27.94
2018-06-28T14:29:42.207Z,27.90
2018-06-28T14:32:10.539Z,27.91
2018-06-28T14:34:38.904Z,27.95
2018-06-28T14:37:07.327Z,27.92
2018-06-28T14:39:35.664Z,27.85
2018-06-28T14:42:04.132Z,27.77
2018-06-28T14:44:33.121Z,27.84
2018-06-28T14:47:01.484Z,27.91
2018-06-28T14:49:29.852Z,27.83
2018-06-28T14:51:58.217Z,27.73
2018-06-28T14:54:26.566Z,27.60
2018-06-28T14:56:54.988Z,27.63
2018-06-28T14:59:23.428Z,27.52
2018-06-28T15:01:51.774Z,27.44
2018-06-28T15:04:20.136Z,27.35
2018-06-28T15:06:48.501Z,27.38
2018-06-28T15:09:16.851Z,27.27
2018-06-28T15:11:45.333Z,27.21
2018-06-28T15:14:14.013Z,27.16
2018-06-28T15:16:42.387Z,27.17
2018-06-28T15:19:10.775Z,27.18
2018-06-28T15:21:39.187Z,27.09
2018-06-28T15:24:07.517Z,27.15
2018-06-28T15:26:35.963Z,27.23
2018-06-28T15:29:04.441Z,27.28
2018-06-28T15:31:32.783Z,27.34
2018-06-28T15:34:01.175Z,27.35
2018-06-28T15:36:29.553Z,27.36
2018-06-28T15:38:58.200Z,27.34
2018-06-28T15:41:26.566Z,27.40
2018-06-28T15:43:54.933Z,27.38
2018-06-28T15:46:23.576Z,27.45
2018-06-28T15:48:51.947Z,27.43
2018-06-28T15:51:20.313Z,27.49
2018-06-28T15:53:48.771Z,27.53
2018-06-28T15:56:17.145Z,27.53
2018-06-28T15:58:45.500Z,27.53
2018-06-28T16:01:13.856Z,27.52
2018-06-28T16:03:42.520Z,27.44
2018-06-28T16:06:10.878Z,27.51
2018-06-28T16:08:39.367Z,27.47
2018-06-28T16:11:07.742Z,27.47
2018-06-28T16:13:36.114Z,27.43
2018-06-28T16:16:04.491Z,27.43
2018-06-28T16:18:33.282Z,27.43
2018-06-28T16:21:01.641Z,27.38
2018-06-28T16:23:30.034Z,27.42
2018-06-28T16:25:58.414Z,27.38
2018-06-28T16:28:26.797Z,27.30
2018-06-28T16:30:55.173Z,27.20
2018-06-28T16:33:23.568Z,27.14
2018-06-28T16:35:51.933Z,27.05
2018-06-28T16:38:20.282Z,26.91
2018-06-28T16:40:48.817Z,26.89
2018-06-28T16:43:18.021Z,26.89
2018-06-28T16:45:46.376Z,26.86
2018-06-28T16:48:14.734Z,26.80
2018-06-28T16:50:43.100Z,26.73
2018-06-28T16:53:11.486Z,26.69
2018-06-28T16:55:40.122Z,26.71
2018-06-28T16:58:09.303Z,26.65
2018-06-28T17:00:37.671Z,26.64
2018-06-28T17:03:06.075Z,26.61
2018-06-28T17:05:34.555Z,26.55
2018-06-28T17:08:03.019Z,26.54
2018-06-28T17:10:31.395Z,26.48
2018-06-28T17:12:59.747Z,26.51
2018-06-28T17:15:28.080Z,26.48
2018-06-28T17:17:56.440Z,26.49
2018-06-28T17:20:24.884Z,26.47
2018-06-28T17:22:53.729Z,26.43
2018-06-28T17:25:22.076Z,26.40
2018-06-28T17:27:50.631Z,26.34
2018-06-28T17:30:18.966Z,26.34
2018-06-28T17:32:47.397Z,26.25
2018-06-28T17:35:16.264Z,26.24
2018-06-28T17:37:44.657Z,26.23
2018-06-28T17:40:13.052Z,26.21
2018-06-28T17:42:41.392Z,26.20
2018-06-28T17:45:09.765Z,26.16
2018-06-28T17:47:38.178Z,26.15
2018-06-28T17:50:06.527Z,26.12
2018-06-28T17:52:34.895Z,26.09
2018-06-28T17:55:03.357Z,26.05
2018-06-28T17:57:31.736Z,26.05
2018-06-28T18:00:00.176Z,26.05
2018-06-28T18:02:28.554Z,26.06
2018-06-28T18:04:56.965Z,25.96
2018-06-28T18:07:25.295Z,25.96
2018-06-28T18:09:53.618Z,25.91
2018-06-28T18:12:21.969Z,25.92
2018-06-28T18:14:50.378Z,25.87
2018-06-28T18:17:18.727Z,25.81
2018-06-28T18:19:47.105Z,25.80
2018-06-28T18:22:15.453Z,25.77
2018-06-28T18:24:43.815Z,25.74
2018-06-28T18:27:12.201Z,25.64
2018-06-28T18:29:40.548Z,25.66
2018-06-28T18:32:08.871Z,25.68
2018-06-28T18:34:37.306Z,25.63
2018-06-28T18:37:05.788Z,25.53
2018-06-28T18:39:34.137Z,25.46
2018-06-28T18:42:02.485Z,25.49
2018-06-28T18:44:30.928Z,25.49
2018-06-28T18:46:59.278Z,25.47
2018-06-28T18:49:27.606Z,25.44
2018-06-28T18:51:56.078Z,25.43
2018-06-28T18:54:24.525Z,25.39
2018-06-28T18:56:52.946Z,25.32
2018-06-28T18:59:21.407Z,25.31
2018-06-28T19:01:49.785Z,25.26
2018-06-28T19:04:18.136Z,25.22
2018-06-28T19:06:46.532Z,25.15
2018-06-28T19:09:14.838Z,25.10
2018-06-28T19:11:43.231Z,25.06
2018-06-28T19:14:17.099Z,25.06
2018-06-28T19:16:50.866Z,25.22
2018-06-28T19:19:19.220Z,25.05
2018-06-28T19:21:52.931Z,25.02
2018-06-28T19:24:21.243Z,24.89
2018-06-28T19:26:49.707Z,24.82
2018-06-28T19:29:23.255Z,24.75
2018-06-28T19:31:56.960Z,24.73
2018-06-28T19:34:25.290Z,24.71
2018-06-28T19:36:54.283Z,24.65
2018-06-28T19:39:27.874Z,24.56
2018-06-28T19:42:01.566Z,24.55
2018-06-28T19:44:30.736Z,24.53
2018-06-28T19:46:59.085Z,24.51
2018-06-28T19:49:32.735Z,24.45
2018-06-28T19:52:06.234Z,24.31
2018-06-28T19:54:34.910Z,24.27
2018-06-28T19:57:03.365Z,24.19
2018-06-28T19:59:35.895Z,24.18
2018-06-28T20:02:09.631Z,24.11
2018-06-28T20:04:43.285Z,24.08
2018-06-28T20:07:11.734Z,24.00
2018-06-28T20:09:40.078Z,24.01
2018-06-28T20:12:12.540Z,23.96
2018-06-28T20:14:46.226Z,23.86
2018-06-28T20:17:19.919Z,23.79
2018-06-28T20:19:53.751Z,23.73
2018-06-28T20:22:22.098Z,23.70
2018-06-28T20:24:50.713Z,23.63
2018-06-28T20:27:24.380Z,23.60
2018-06-28T20:29:58.090Z,23.51
2018-06-28T20:32:31.931Z,23.43
2018-06-28T20:35:00.407Z,23.37
2018-06-28T20:37:28.788Z,23.39
2018-06-28T20:39:57.132Z,23.32
2018-06-28T20:42:25.543Z,23.25
2018-06-28T20:44:53.897Z,23.21
2018-06-28T20:47:22.232Z,23.15
2018-06-28T20:49:50.663Z,23.13
2018-06-28T20:52:19.032Z,23.10
2018-06-28T20:54:47.419Z,23.07
2018-06-28T20:57:15.831Z,23.05
2018-06-28T20:59:44.199Z,23.04
2018-06-28T21:02:12.543Z,22.97
2018-06-28T21:04:40.921Z,22.96
2018-06-28T21:07:09.270Z,22.93
2018-06-28T21:09:37.653Z,22.88
2018-06-28T21:12:06.115Z,22.86
2018-06-28T21:14:34.472Z,22.79
2018-06-28T21:17:02.851Z,22.75
2018-06-28T21:19:31.204Z,22.71
2018-06-28T21:21:59.547Z,22.62
2018-06-28T21:24:27.857Z,22.54
2018-06-28T21:26:56.200Z,22.52
2018-06-28T21:29:24.525Z,22.51
2018-06-28T21:31:52.876Z,22.50
2018-06-28T21:34:21.678Z,22.43
2018-06-28T21:36:50.064Z,22.37
2018-06-28T21:39:18.370Z,22.35
2018-06-28T21:41:46.702Z,22.32
2018-06-28T21:44:15.129Z,22.31
2018-06-28T21:46:43.454Z,22.31
2018-06-28T21:49:11.776Z,22.30
2018-06-28T21:51:40.095Z,22.27
2018-06-28T21:54:08.406Z,22.20
2018-06-28T21:56:36.899Z,22.05
2018-06-28T21:59:05.233Z,22.00
2018-06-28T22:01:33.575Z,22.01
2018-06-28T22:04:01.875Z,21.99
2018-06-28T22:06:30.196Z,21.96
2018-06-28T22:08:58.574Z,21.98
2018-06-28T22:11:26.891Z,21.90
2018-06-28T22:13:55.365Z,21.86
2018-06-28T22:16:23.677Z,21.87
2018-06-28T22:18:51.994Z,21.87
2018-06-28T22:21:20.295Z,21.79
2018-06-28T22:23:48.606Z,21.83
2018-06-28T22:26:16.954Z,21.81
2018-06-28T22:28:45.270Z,21.75
2018-06-28T22:31:13.612Z,21.72
2018-06-28T22:33:41.931Z,21.72
2018-06-28T22:36:10.268Z,21.68
2018-06-28T22:38:38.577Z,21.69
2018-06-28T22:41:07.154Z,21.61
2018-06-28T22:43:35.523Z,21.61
2018-06-28T22:46:03.916Z,21.55
2018-06-28T22:48:32.470Z,21.53
2018-06-28T22:51:00.790Z,21.48
2018-06-28T22:53:29.735Z,21.43
2018-06-28T22:55:58.052Z,21.44
2018-06-28T22:58:26.395Z,21.39
2018-06-28T23:00:54.740Z,21.37
2018-06-28T23:03:23.061Z,21.29
2018-06-28T23:05:51.565Z,21.26
2018-06-28T23:08:19.916Z,21.24
2018-06-28T23:10:48.291Z,21.25
2018-06-28T23:13:16.666Z,21.20
2018-06-28T23:15:44.982Z,21.15
2018-06-28T23:18:13.325Z,21.17
2018-06-28T23:20:41.765Z,21.10
2018-06-28T23:23:10.131Z,21.06
2018-06-28T23:25:38.481Z,21.02
2018-06-28T23:28:06.818Z,21.01
2018-06-28T23:30:35.191Z,20.96
2018-06-28T23:33:03.586Z,20.91
2018-06-28T23:35:31.910Z,20.87
2018-06-28T23:38:00.336Z,20.88
2018-06-28T23:40:28.698Z,20.78
2018-06-28T23:42:57.093Z,20.78
2018-06-28T23:45:25.818Z,20.75
2018-06-28T23:47:54.243Z,20.72
2018-06-28T23:50:22.564Z,20.70
2018-06-28T23:52:50.884Z,20.63
2018-06-28T23:55:19.636Z,20.61
2018-06-28T23:57:48.117Z,20.60
